createdAt,value
2023-03-10T00:01:35.858Z,98995.41
2023-03-10T00:04:06.171Z,98980.34
2023-03-10T00:06:37.503Z,98985.19
2023-03-10T00:09:08.131Z,98983.22
2023-03-10T00:11:37.592Z,98978.84
2023-03-10T00:14:04.567Z,98977.69
2023-03-10T00:16:31.451Z,98968.97
2023-03-10T00:19:00.936Z,98965.63
2023-03-10T00:21:33.241Z,98954.91
2023-03-10T00:24:01.452Z,98953.22
2023-03-10T00:26:29.566Z,98957.09
2023-03-10T00:28:56.916Z,98951.22
2023-03-10T00:31:28.071Z,98937.50
2023-03-10T00:33:58.716Z,98944.53
2023-03-10T00:36:28.758Z,98932.16
2023-03-10T00:39:02.354Z,98925.44
2023-03-10T00:41:36.419Z,98917.75
2023-03-10T00:44:09.489Z,98903.19
2023-03-10T00:46:38.727Z,98906.72
2023-03-10T00:49:10.962Z,98890.31
2023-03-10T00:51:37.950Z,98884.59
2023-03-10T00:54:07.790Z,98889.28
2023-03-10T00:56:34.647Z,98882.22
2023-03-10T00:59:03.826Z,98875.84
2023-03-10T01:01:37.517Z,98863.28
2023-03-10T01:04:08.192Z,98864.63
2023-03-10T01:06:37.978Z,98852.09
2023-03-10T01:09:10.503Z,98856.44
2023-03-10T01:11:37.568Z,98847.69
2023-03-10T01:14:07.344Z,98829.25
2023-03-10T01:16:36.694Z,98828.13
2023-03-10T01:19:03.562Z,98827.66
2023-03-10T01:21:38.378Z,98818.31
2023-03-10T01:24:07.056Z,98823.34
2023-03-10T01:26:33.934Z,98808.59
2023-03-10T01:29:03.290Z,98808.06
2023-03-10T01:31:30.249Z,98808.28
2023-03-10T01:33:57.604Z,98806.47
2023-03-10T01:36:29.629Z,98797.94
2023-03-10T01:39:00.315Z,98795.72
2023-03-10T01:41:27.337Z,98793.00
2023-03-10T01:43:58.224Z,98794.50
2023-03-10T01:46:41.433Z,98786.53
2023-03-10T01:49:32.106Z,98780.34
2023-03-10T01:52:22.976Z,98772.38
2023-03-10T01:55:20.614Z,98766.03
2023-03-10T01:57:55.453Z,98763.06
2023-03-10T02:00:24.425Z,98745.66
2023-03-10T02:03:07.818Z,98739.66
2023-03-10T02:05:41.953Z,98734.56
2023-03-10T02:08:11.955Z,98734.44
2023-03-10T02:10:39.474Z,98728.56
2023-03-10T02:13:06.832Z,98728.41
2023-03-10T02:15:36.434Z,98725.97
2023-03-10T02:18:06.257Z,98708.50
2023-03-10T02:20:41.366Z,98707.00
2023-03-10T02:23:14.861Z,98696.97
2023-03-10T02:25:53.699Z,98690.56
2023-03-10T02:28:23.623Z,98678.25
2023-03-10T02:30:53.538Z,98679.22
2023-03-10T02:33:29.646Z,98671.09
2023-03-10T02:36:05.231Z,98674.78
2023-03-10T02:38:32.237Z,98671.16
2023-03-10T02:40:59.163Z,98656.47
2023-03-10T02:43:34.689Z,98655.56
2023-03-10T02:46:05.923Z,98642.16
2023-03-10T02:48:36.680Z,98639.59
2023-03-10T02:51:09.822Z,98631.19
2023-03-10T02:53:42.257Z,98627.94
2023-03-10T02:56:09.417Z,98628.03
2023-03-10T02:58:39.318Z,98622.47
2023-03-10T03:01:06.826Z,98626.44
2023-03-10T03:03:34.588Z,98618.50
2023-03-10T03:06:04.957Z,98616.50
2023-03-10T03:08:33.431Z,98608.25
2023-03-10T03:11:03.162Z,98611.25
2023-03-10T03:13:30.196Z,98613.41
2023-03-10T03:15:59.936Z,98610.88
2023-03-10T03:18:27.408Z,98596.38
2023-03-10T03:20:56.774Z,98597.22
2023-03-10T03:23:26.160Z,98587.84
2023-03-10T03:25:56.055Z,98585.28
2023-03-10T03:28:27.902Z,98588.22
2023-03-10T03:30:55.103Z,98584.44
2023-03-10T03:33:22.319Z,98576.47
2023-03-10T03:35:49.312Z,98578.19
2023-03-10T03:38:16.417Z,98571.19
2023-03-10T03:40:46.039Z,98578.06
2023-03-10T03:43:15.455Z,98571.56
2023-03-10T03:45:42.467Z,98570.69
2023-03-10T03:48:12.814Z,98566.03
2023-03-10T03:50:39.745Z,98565.97
2023-03-10T03:53:06.610Z,98565.66
2023-03-10T03:55:33.503Z,98554.78
2023-03-10T03:58:02.571Z,98552.66
2023-03-10T04:00:34.102Z,98561.94
2023-03-10T04:03:01.735Z,98550.59
2023-03-10T04:05:28.775Z,98543.63
2023-03-10T04:07:58.157Z,98558.59
2023-03-10T04:10:27.104Z,98551.41
2023-03-10T04:12:54.283Z,98556.72
2023-03-10T04:15:25.677Z,98541.31
2023-03-10T04:17:57.676Z,98549.34
2023-03-10T04:20:26.072Z,98551.06
2023-03-10T04:22:55.163Z,98546.69
2023-03-10T04:25:22.041Z,98543.28
2023-03-10T04:27:48.950Z,98545.59
2023-03-10T04:30:16.252Z,98539.72
2023-03-10T04:32:47.932Z,98531.91
2023-03-10T04:35:15.990Z,98526.59
2023-03-10T04:37:44.821Z,98527.44
2023-03-10T04:40:16.334Z,98521.00
2023-03-10T04:42:43.475Z,98515.63
2023-03-10T04:45:13.703Z,98510.94
2023-03-10T04:47:45.602Z,98504.22
2023-03-10T04:50:17.399Z,98508.28
2023-03-10T04:52:50.435Z,98506.31
2023-03-10T04:55:19.961Z,98499.44
2023-03-10T04:57:52.256Z,98501.03
2023-03-10T05:00:21.838Z,98494.31
2023-03-10T05:02:48.752Z,98481.59
2023-03-10T05:05:15.713Z,98488.28
2023-03-10T05:07:45.235Z,98487.56
2023-03-10T05:10:12.597Z,98480.25
2023-03-10T05:12:43.792Z,98473.53
2023-03-10T05:15:13.478Z,98477.09
2023-03-10T05:17:40.335Z,98473.97
2023-03-10T05:20:09.428Z,98472.66
2023-03-10T05:22:41.843Z,98477.06
2023-03-10T05:25:12.473Z,98463.72
2023-03-10T05:27:43.986Z,98469.59
2023-03-10T05:30:15.504Z,98467.22
2023-03-10T05:32:45.737Z,98468.75
2023-03-10T05:35:15.521Z,98469.31
2023-03-10T05:37:44.202Z,98467.38
2023-03-10T05:40:16.470Z,98458.75
2023-03-10T05:42:43.331Z,98464.31
2023-03-10T05:45:11.270Z,98457.38
2023-03-10T05:47:38.161Z,98458.22
2023-03-10T05:50:05.878Z,98459.00
2023-03-10T05:52:36.723Z,98460.22
2023-03-10T05:55:03.984Z,98466.00
2023-03-10T05:57:30.906Z,98459.72
2023-03-10T05:59:59.994Z,98463.28
2023-03-10T06:02:26.846Z,98472.91
2023-03-10T06:04:56.262Z,98472.44
2023-03-10T06:07:23.171Z,98469.91
2023-03-10T06:09:53.986Z,98471.00
2023-03-10T06:12:23.725Z,98476.59
2023-03-10T06:14:53.052Z,98473.19
2023-03-10T06:17:22.345Z,98479.22
2023-03-10T06:19:49.347Z,98480.38
2023-03-10T06:22:18.666Z,98484.28
2023-03-10T06:24:45.698Z,98486.50
2023-03-10T06:27:12.536Z,98481.47
2023-03-10T06:29:39.366Z,98489.53
2023-03-10T06:32:06.675Z,98481.38
2023-03-10T06:34:33.539Z,98479.84
2023-03-10T06:37:00.419Z,98489.25
2023-03-10T06:39:30.700Z,98495.53
2023-03-10T06:41:57.696Z,98502.06
2023-03-10T06:44:27.542Z,98510.50
2023-03-10T06:46:54.418Z,98500.44
2023-03-10T06:49:21.262Z,98501.34
2023-03-10T06:51:48.154Z,98504.44
2023-03-10T06:54:17.144Z,98509.41
2023-03-10T06:56:46.944Z,98516.81
2023-03-10T06:59:16.064Z,98519.50
2023-03-10T07:01:47.618Z,98516.69
2023-03-10T07:04:14.692Z,98522.47
2023-03-10T07:06:41.583Z,98528.25
2023-03-10T07:09:08.460Z,98538.00
2023-03-10T07:11:35.351Z,98535.75
2023-03-10T07:14:02.291Z,98542.28
2023-03-10T07:16:29.250Z,98532.47
2023-03-10T07:18:59.147Z,98551.22
2023-03-10T07:21:28.300Z,98554.50
2023-03-10T07:23:58.132Z,98550.31
2023-03-10T07:26:27.501Z,98556.50
2023-03-10T07:28:56.838Z,98548.41
2023-03-10T07:31:26.306Z,98549.13
2023-03-10T07:33:53.266Z,98550.06
2023-03-10T07:36:22.528Z,98557.75
2023-03-10T07:38:55.002Z,98554.78
2023-03-10T07:41:26.603Z,98561.50
2023-03-10T07:44:00.102Z,98555.44
2023-03-10T07:46:29.694Z,98555.97
2023-03-10T07:48:59.925Z,98568.31
2023-03-10T07:51:27.387Z,98556.56
2023-03-10T07:53:56.759Z,98554.72
2023-03-10T07:56:26.703Z,98561.16
2023-03-10T07:58:55.674Z,98560.56
2023-03-10T08:01:22.860Z,98556.75
2023-03-10T08:03:57.940Z,98559.47
2023-03-10T08:06:28.340Z,98575.06
2023-03-10T08:08:55.950Z,98568.41
2023-03-10T08:11:24.961Z,98569.41
2023-03-10T08:13:56.502Z,98570.91
2023-03-10T08:16:23.749Z,98583.53
2023-03-10T08:18:53.296Z,98583.25
2023-03-10T08:21:20.566Z,98586.81
2023-03-10T08:23:50.430Z,98589.63
2023-03-10T08:26:19.059Z,98586.56
2023-03-10T08:28:47.211Z,98598.91
2023-03-10T08:31:18.101Z,98595.31
2023-03-10T08:33:46.002Z,98599.13
2023-03-10T08:36:22.549Z,98607.31
2023-03-10T08:38:54.632Z,98608.22
2023-03-10T08:41:31.519Z,98609.53
2023-03-10T08:44:01.888Z,98614.38
2023-03-10T08:46:31.881Z,98621.56
2023-03-10T08:49:01.897Z,98616.09
2023-03-10T08:51:31.069Z,98625.75
2023-03-10T08:53:58.149Z,98619.16
2023-03-10T08:56:27.573Z,98622.88
2023-03-10T08:58:59.151Z,98617.00
2023-03-10T09:01:32.421Z,98621.16
2023-03-10T09:04:00.693Z,98616.84
2023-03-10T09:06:27.830Z,98622.66
2023-03-10T09:08:55.386Z,98619.72
2023-03-10T09:11:33.284Z,98613.81
2023-03-10T09:14:02.329Z,98615.91
2023-03-10T09:16:30.656Z,98613.97
2023-03-10T09:18:58.988Z,98609.69
2023-03-10T09:21:33.240Z,98613.53
2023-03-10T09:24:03.885Z,98613.19
2023-03-10T09:26:31.300Z,98613.41
2023-03-10T09:29:00.247Z,98614.13
2023-03-10T09:31:35.491Z,98611.16
2023-03-10T09:34:06.315Z,98618.31
2023-03-10T09:36:33.625Z,98620.03
2023-03-10T09:39:04.600Z,98623.78
2023-03-10T09:42:05.896Z,98643.09
2023-03-10T09:44:50.772Z,98639.63
2023-03-10T09:47:52.995Z,98650.22
2023-03-10T09:50:32.909Z,98649.94
2023-03-10T09:53:39.216Z,98648.25
2023-03-10T09:56:19.813Z,98643.41
2023-03-10T09:58:51.701Z,98636.84
2023-03-10T10:01:27.143Z,98636.81
2023-03-10T10:04:00.010Z,98637.88
2023-03-10T10:06:43.950Z,98632.03
2023-03-10T10:09:53.557Z,98632.31
2023-03-10T10:12:23.898Z,98642.72
2023-03-10T10:15:01.793Z,98657.44
2023-03-10T10:17:58.569Z,98653.47
2023-03-10T10:20:33.603Z,98653.28
2023-03-10T10:23:00.607Z,98652.53
2023-03-10T10:25:32.325Z,98663.84
2023-03-10T10:28:02.408Z,98649.88
2023-03-10T10:30:40.383Z,98649.56
2023-03-10T10:33:13.519Z,98652.81
2023-03-10T10:35:59.651Z,98652.91
2023-03-10T10:38:31.877Z,98658.59
2023-03-10T10:41:22.066Z,98652.09
2023-03-10T10:43:50.406Z,98663.13
2023-03-10T10:46:26.551Z,98653.97
2023-03-10T10:49:28.555Z,98659.78
2023-03-10T10:52:06.548Z,98648.63
2023-03-10T10:54:43.743Z,98657.09
2023-03-10T10:57:23.799Z,98660.81
2023-03-10T10:59:53.225Z,98664.91
2023-03-10T11:02:43.087Z,98664.78
2023-03-10T11:05:12.708Z,98670.88
2023-03-10T11:07:47.109Z,98662.84
2023-03-10T11:10:38.179Z,98661.16
2023-03-10T11:13:18.818Z,98674.53
2023-03-10T11:16:06.249Z,98672.72
2023-03-10T11:19:03.751Z,98673.13
2023-03-10T11:21:36.585Z,98673.75
2023-03-10T11:24:14.183Z,98666.72
2023-03-10T11:27:26.456Z,98672.22
2023-03-10T11:30:04.512Z,98669.78
2023-03-10T11:33:09.256Z,98680.53
2023-03-10T11:35:47.057Z,98684.50
2023-03-10T11:38:42.428Z,98691.25
2023-03-10T11:41:23.746Z,98692.28
2023-03-10T11:44:08.574Z,98693.88
2023-03-10T11:46:39.731Z,98691.22
2023-03-10T11:49:16.905Z,98695.09
2023-03-10T11:52:05.355Z,98682.81
2023-03-10T11:54:37.052Z,98687.78
2023-03-10T11:57:14.386Z,98686.59
2023-03-10T11:59:55.549Z,98680.56
2023-03-10T12:02:49.041Z,98676.16
2023-03-10T12:05:21.957Z,98684.03
2023-03-10T12:07:53.363Z,98666.41
2023-03-10T12:10:22.245Z,98674.94
2023-03-10T12:12:54.038Z,98673.34
2023-03-10T12:15:30.309Z,98678.59
2023-03-10T12:17:57.677Z,98676.28
2023-03-10T12:20:28.690Z,98676.50
2023-03-10T12:23:24.743Z,98666.38
2023-03-10T12:25:51.713Z,98667.28
2023-03-10T12:28:28.834Z,98661.38
2023-03-10T12:31:05.104Z,98663.88
2023-03-10T12:33:34.499Z,98660.25
2023-03-10T12:36:10.236Z,98660.25
2023-03-10T12:38:43.189Z,98660.78
2023-03-10T12:41:13.569Z,98649.66
2023-03-10T12:43:44.355Z,98651.00
2023-03-10T12:46:17.429Z,98655.81
2023-03-10T12:48:53.448Z,98648.44
2023-03-10T12:51:28.150Z,98646.78
2023-03-10T12:54:00.391Z,98640.97
2023-03-10T12:56:43.379Z,98638.78
2023-03-10T12:59:23.633Z,98642.28
2023-03-10T13:01:56.027Z,98646.00
2023-03-10T13:04:25.800Z,98644.41
2023-03-10T13:06:56.874Z,98649.16
2023-03-10T13:09:31.190Z,98643.97
2023-03-10T13:12:32.032Z,98642.88
2023-03-10T13:15:08.133Z,98646.94
2023-03-10T13:17:35.189Z,98652.31
2023-03-10T13:20:15.437Z,98651.72
2023-03-10T13:22:58.037Z,98652.75
2023-03-10T13:25:26.403Z,98650.94
2023-03-10T13:27:57.483Z,98649.94
2023-03-10T13:30:27.952Z,98656.94
2023-03-10T13:33:04.068Z,98662.72
2023-03-10T13:35:35.853Z,98666.53
2023-03-10T13:38:21.721Z,98665.69
2023-03-10T13:41:03.574Z,98658.34
2023-03-10T13:43:37.265Z,98657.91
2023-03-10T13:46:29.390Z,98644.38
2023-03-10T13:49:03.835Z,98634.84
2023-03-10T13:51:37.302Z,98633.09
2023-03-10T13:54:37.534Z,98637.53
2023-03-10T13:57:31.384Z,98629.97
2023-03-10T14:00:08.793Z,98628.66
2023-03-10T14:02:40.204Z,98639.19
2023-03-10T14:05:46.073Z,98636.28
2023-03-10T14:08:33.880Z,98648.50
2023-03-10T14:11:24.932Z,98642.53
2023-03-10T14:13:51.855Z,98645.31
2023-03-10T14:16:18.839Z,98646.44
2023-03-10T14:18:45.833Z,98642.59
2023-03-10T14:21:32.449Z,98645.47
2023-03-10T14:24:05.801Z,98643.91
2023-03-10T14:26:33.093Z,98641.44
2023-03-10T14:29:16.308Z,98642.97
2023-03-10T14:31:46.186Z,98645.06
2023-03-10T14:34:13.797Z,98651.19
2023-03-10T14:36:43.003Z,98654.28
2023-03-10T14:39:14.516Z,98662.16
2023-03-10T14:41:41.513Z,98664.56
2023-03-10T14:44:15.118Z,98655.31
2023-03-10T14:46:42.392Z,98650.69
2023-03-10T14:49:15.512Z,98656.06
2023-03-10T14:51:42.422Z,98652.16
2023-03-10T14:54:23.948Z,98653.09
2023-03-10T14:56:58.928Z,98651.06
2023-03-10T14:59:28.101Z,98644.69
2023-03-10T15:01:56.843Z,98651.06
2023-03-10T15:04:26.303Z,98646.63
2023-03-10T15:06:53.359Z,98637.53
2023-03-10T15:09:22.338Z,98640.13
2023-03-10T15:11:49.241Z,98636.16
2023-03-10T15:14:18.947Z,98635.22
2023-03-10T15:16:46.392Z,98643.66
2023-03-10T15:19:26.973Z,98645.50
2023-03-10T15:21:56.942Z,98636.72
2023-03-10T15:24:26.222Z,98636.91
2023-03-10T15:26:53.120Z,98632.00
2023-03-10T15:29:24.970Z,98627.81
2023-03-10T15:31:54.825Z,98626.25
2023-03-10T15:34:22.872Z,98624.28
2023-03-10T15:36:51.827Z,98629.34
2023-03-10T15:39:30.735Z,98621.81
2023-03-10T15:42:00.783Z,98623.00
2023-03-10T15:44:29.658Z,98614.50
2023-03-10T15:46:56.611Z,98620.97
2023-03-10T15:49:23.564Z,98631.19
2023-03-10T15:51:55.134Z,98631.16
2023-03-10T15:54:21.940Z,98634.13
2023-03-10T15:56:48.806Z,98634.31
2023-03-10T15:59:16.193Z,98628.16
2023-03-10T16:01:43.159Z,98631.06
2023-03-10T16:04:12.506Z,98635.72
2023-03-10T16:06:39.352Z,98629.06
2023-03-10T16:09:08.673Z,98625.47
2023-03-10T16:11:35.942Z,98628.19
2023-03-10T16:14:03.558Z,98625.88
2023-03-10T16:16:30.654Z,98628.38
2023-03-10T16:18:57.754Z,98629.84
2023-03-10T16:21:27.791Z,98630.84
2023-03-10T16:23:57.510Z,98630.63
2023-03-10T16:26:25.063Z,98642.06
2023-03-10T16:28:54.697Z,98634.50
2023-03-10T16:31:26.992Z,98624.22
2023-03-10T16:33:56.424Z,98628.53
2023-03-10T16:36:31.474Z,98623.69
2023-03-10T16:38:58.514Z,98622.41
2023-03-10T16:41:29.688Z,98615.28
2023-03-10T16:43:56.862Z,98633.09
2023-03-10T16:46:31.268Z,98626.50
2023-03-10T16:49:01.938Z,98626.13
2023-03-10T16:51:32.815Z,98623.09
2023-03-10T16:54:03.396Z,98634.75
2023-03-10T16:56:32.552Z,98619.63
2023-03-10T16:58:59.718Z,98628.53
2023-03-10T17:01:32.708Z,98631.72
2023-03-10T17:04:02.215Z,98637.56
2023-03-10T17:06:35.462Z,98646.66
2023-03-10T17:09:09.897Z,98650.94
2023-03-10T17:11:40.118Z,98642.16
2023-03-10T17:14:14.132Z,98643.19
2023-03-10T17:16:42.012Z,98636.38
2023-03-10T17:19:19.373Z,98649.41
2023-03-10T17:21:49.688Z,98646.53
2023-03-10T17:24:20.382Z,98657.97
2023-03-10T17:26:49.950Z,98658.47
2023-03-10T17:29:19.507Z,98665.72
2023-03-10T17:31:50.518Z,98669.56
2023-03-10T17:34:19.099Z,98670.97
2023-03-10T17:36:46.819Z,98663.47
2023-03-10T17:39:22.711Z,98659.44
2023-03-10T17:41:52.390Z,98652.53
2023-03-10T17:44:19.271Z,98648.22
2023-03-10T17:46:48.965Z,98640.19
2023-03-10T17:49:19.545Z,98635.00
2023-03-10T17:51:47.233Z,98637.69
2023-03-10T17:54:20.197Z,98635.81
2023-03-10T17:56:48.878Z,98643.22
2023-03-10T17:59:18.729Z,98641.91
2023-03-10T18:01:49.573Z,98647.22
2023-03-10T18:04:16.756Z,98641.47
2023-03-10T18:06:48.200Z,98640.16
2023-03-10T18:09:17.907Z,98643.75
2023-03-10T18:11:47.388Z,98652.94
2023-03-10T18:14:18.892Z,98651.81
2023-03-10T18:16:45.795Z,98655.56
2023-03-10T18:19:21.178Z,98656.53
2023-03-10T18:21:49.339Z,98654.03
2023-03-10T18:24:23.627Z,98646.81
2023-03-10T18:26:52.577Z,98640.41
2023-03-10T18:29:19.438Z,98646.91
2023-03-10T18:31:46.270Z,98639.28
2023-03-10T18:34:13.545Z,98632.06
2023-03-10T18:36:42.702Z,98644.88
2023-03-10T18:39:12.065Z,98639.16
2023-03-10T18:41:39.021Z,98636.78
2023-03-10T18:44:06.027Z,98632.72
2023-03-10T18:46:36.228Z,98642.84
2023-03-10T18:49:05.671Z,98640.63
2023-03-10T18:51:32.586Z,98636.19
2023-03-10T18:54:01.966Z,98649.31
2023-03-10T18:56:31.916Z,98647.25
2023-03-10T18:59:03.318Z,98639.41
2023-03-10T19:01:32.803Z,98643.50
2023-03-10T19:04:02.532Z,98630.00
2023-03-10T19:06:33.909Z,98644.16
2023-03-10T19:09:03.963Z,98637.72
2023-03-10T19:11:38.128Z,98641.50
2023-03-10T19:14:07.254Z,98640.63
2023-03-10T19:16:39.718Z,98642.28
2023-03-10T19:19:09.846Z,98638.19
2023-03-10T19:21:39.911Z,98642.91
2023-03-10T19:24:07.274Z,98643.63
2023-03-10T19:26:37.129Z,98644.03
2023-03-10T19:29:07.568Z,98657.00
2023-03-10T19:31:34.906Z,98645.50
2023-03-10T19:34:01.841Z,98646.66
2023-03-10T19:36:29.511Z,98652.38
2023-03-10T19:38:56.483Z,98652.38
2023-03-10T19:41:23.595Z,98658.84
2023-03-10T19:43:54.626Z,98651.69
2023-03-10T19:46:23.902Z,98665.75
2023-03-10T19:48:53.295Z,98679.13
2023-03-10T19:51:29.050Z,98679.00
2023-03-10T19:53:58.831Z,98691.91
2023-03-10T19:56:28.223Z,98698.38
2023-03-10T19:58:57.433Z,98712.25
2023-03-10T20:01:29.069Z,98711.63
2023-03-10T20:03:59.856Z,98726.94
2023-03-10T20:06:27.473Z,98735.97
2023-03-10T20:08:57.377Z,98748.59
2023-03-10T20:11:24.284Z,98750.28
2023-03-10T20:13:52.938Z,98761.84
2023-03-10T20:16:22.532Z,98770.88
2023-03-10T20:18:51.583Z,98777.53
2023-03-10T20:21:20.746Z,98785.22
2023-03-10T20:23:48.578Z,98789.53
2023-03-10T20:26:16.395Z,98785.00
2023-03-10T20:28:44.948Z,98801.22
2023-03-10T20:31:20.372Z,98811.31
2023-03-10T20:33:47.711Z,98819.28
2023-03-10T20:36:15.707Z,98829.38
2023-03-10T20:38:44.843Z,98835.00
2023-03-10T20:41:21.046Z,98846.78
2023-03-10T20:43:51.298Z,98849.81
2023-03-10T20:46:19.428Z,98859.00
2023-03-10T20:48:49.856Z,98864.88
2023-03-10T20:51:19.088Z,98866.69
2023-03-10T20:53:46.127Z,98884.59
2023-03-10T20:56:14.329Z,98887.63
2023-03-10T20:58:41.455Z,98888.13
2023-03-10T21:01:22.070Z,98889.97
2023-03-10T21:03:49.088Z,98902.69
2023-03-10T21:06:15.924Z,98915.75
2023-03-10T21:08:47.669Z,98919.59
2023-03-10T21:11:15.660Z,98918.09
2023-03-10T21:13:42.955Z,98927.13
2023-03-10T21:16:10.851Z,98930.97
2023-03-10T21:18:38.628Z,98946.88
2023-03-10T21:21:13.676Z,98942.16
2023-03-10T21:23:43.641Z,98953.56
2023-03-10T21:26:23.031Z,98972.97
2023-03-10T21:28:56.946Z,98973.91
2023-03-10T21:31:23.930Z,98986.97
2023-03-10T21:33:50.845Z,98992.84
2023-03-10T21:36:23.562Z,98997.69
2023-03-10T21:38:51.846Z,99007.56
2023-03-10T21:41:27.428Z,99009.06
2023-03-10T21:44:01.681Z,99015.22
2023-03-10T21:46:33.308Z,99029.53
2023-03-10T21:49:00.342Z,99037.09
2023-03-10T21:51:29.536Z,99041.75
2023-03-10T21:53:57.592Z,99048.09
2023-03-10T21:56:29.383Z,99047.75
2023-03-10T21:58:57.574Z,99052.94
2023-03-10T22:01:25.262Z,99057.13
2023-03-10T22:03:56.670Z,99061.19
2023-03-10T22:06:23.576Z,99068.22
2023-03-10T22:08:52.764Z,99083.25
2023-03-10T22:11:19.854Z,99083.13
2023-03-10T22:13:48.896Z,99081.81
2023-03-10T22:16:17.850Z,99093.50
2023-03-10T22:18:49.309Z,99090.84
2023-03-10T22:21:17.563Z,99108.34
2023-03-10T22:23:45.144Z,99115.97
2023-03-10T22:26:13.704Z,99116.13
2023-03-10T22:28:42.939Z,99122.63
2023-03-10T22:31:10.624Z,99117.56
2023-03-10T22:33:42.378Z,99125.22
2023-03-10T22:36:12.695Z,99134.38
2023-03-10T22:38:39.932Z,99140.13
2023-03-10T22:41:11.563Z,99140.81
2023-03-10T22:43:43.851Z,99151.13
2023-03-10T22:46:15.530Z,99156.25
2023-03-10T22:48:43.773Z,99155.75
2023-03-10T22:51:16.183Z,99166.34
2023-03-10T22:53:43.643Z,99169.91
2023-03-10T22:56:10.543Z,99183.03
2023-03-10T22:58:40.040Z,99180.31
2023-03-10T23:01:09.947Z,99191.59
2023-03-10T23:03:37.321Z,99191.53
2023-03-10T23:06:08.096Z,99192.00
2023-03-10T23:08:37.579Z,99205.03
2023-03-10T23:11:15.418Z,99221.69
2023-03-10T23:13:42.592Z,99224.69
2023-03-10T23:16:09.899Z,99224.53
2023-03-10T23:18:36.820Z,99238.44
2023-03-10T23:21:09.015Z,99238.63
2023-03-10T23:23:36.181Z,99242.28
2023-03-10T23:26:03.225Z,99253.63
2023-03-10T23:28:30.163Z,99262.00
2023-03-10T23:30:57.035Z,99266.06
2023-03-10T23:33:27.592Z,99273.97
2023-03-10T23:35:56.666Z,99279.75
2023-03-10T23:38:26.633Z,99295.78
2023-03-10T23:40:57.181Z,99299.78
2023-03-10T23:43:24.393Z,99309.31
2023-03-10T23:45:53.859Z,99318.19
2023-03-10T23:48:26.472Z,99317.50
2023-03-10T23:50:53.507Z,99331.25
2023-03-10T23:53:23.081Z,99335.38
2023-03-10T23:55:52.532Z,99343.41
2023-03-10T23:58:19.937Z,99343.47
